Time;durP1;ratioP1;P1;durP2;ratioP2;P2;SDS_P1;SDS_P2;PMS_P1;PMS_P2;Temp;Humidity;BMP_temperature;BMP_pressure;BME280_temperature;BME280_humidity;BME280_pressure;Samples;Min_cycle;Max_cycle;Signal;HPM_P1;HPM_P2
2022/09/01 00:02:14;;;;;;;2.03;0.80;;;;;;;-142.37;100.00;59669.53;4976056;28;20049;-67
2022/09/01 00:04:43;;;;;;;4.80;1.60;;;;;;;-142.37;100.00;59669.53;4959003;28;20031;-65
2022/09/01 00:07:09;;;;;;;0.88;0.50;;;;;;;-142.37;100.00;59669.53;4974918;28;20077;-66
2022/09/01 00:09:36;;;;;;;1.02;0.63;;;;;;;-142.37;100.00;59669.53;4976507;28;20113;-67
2022/09/01 00:12:04;;;;;;;1.05;0.45;;;;;;;-142.37;100.00;59669.53;4976080;28;20081;-66
2022/09/01 00:14:35;;;;;;;1.98;0.57;;;;;;;-142.37;100.00;59669.53;4958898;28;20039;-67
2022/09/01 00:17:05;;;;;;;0.52;0.45;;;;;;;-142.37;100.00;59669.53;4975896;28;20031;-66
2022/09/01 00:19:32;;;;;;;0.93;0.65;;;;;;;-142.37;100.00;59669.53;4976007;28;20042;-66
2022/09/01 00:21:59;;;;;;;2.53;0.63;;;;;;;-142.37;100.00;59669.53;4976130;28;20066;-67
2022/09/01 00:24:25;;;;;;;1.73;0.50;;;;;;;-142.37;100.00;59669.53;4975969;28;20038;-67
2022/09/01 00:26:52;;;;;;;2.15;0.70;;;;;;;-142.37;100.00;59669.53;4976055;28;20031;-66
2022/09/01 00:29:18;;;;;;;0.50;0.40;;;;;;;-142.37;100.00;59669.53;4975285;28;20047;-67
2022/09/01 00:31:43;;;;;;;1.60;0.35;;;;;;;-142.37;100.00;59669.53;4976137;28;20105;-67
2022/09/01 00:34:09;;;;;;;0.93;0.40;;;;;;;-142.37;100.00;59669.53;4975622;28;20364;-67
2022/09/01 00:36:35;;;;;;;1.05;0.50;;;;;;;-142.37;100.00;59669.53;4975494;28;20479;-66
2022/09/01 00:39:01;;;;;;;1.98;0.55;;;;;;;-142.37;100.00;59669.53;4957982;28;20078;-68
2022/09/01 00:41:30;;;;;;;2.63;0.70;;;;;;;-142.37;100.00;59669.53;4975440;28;20038;-68
2022/09/01 00:44:00;;;;;;;2.15;0.60;;;;;;;-142.37;100.00;59669.53;4975337;28;20034;-66
2022/09/01 00:46:33;;;;;;;1.35;0.60;;;;;;;-142.37;100.00;59669.53;4975522;28;20035;-67
2022/09/01 00:49:06;;;;;;;1.27;0.50;;;;;;;-142.37;100.00;59669.53;4975540;28;20106;-67
2022/09/01 00:51:35;;;;;;;2.35;0.40;;;;;;;-142.37;100.00;59669.53;4975254;28;20480;-66
2022/09/01 00:54:03;;;;;;;1.00;0.70;;;;;;;-142.37;100.00;59669.53;4974959;28;20026;-68
2022/09/01 00:56:32;;;;;;;1.42;0.60;;;;;;;-142.37;100.00;59669.53;4975288;28;20037;-67
2022/09/01 00:58:59;;;;;;;3.13;0.70;;;;;;;-142.37;100.00;59669.53;4975319;28;20034;-66
2022/09/01 01:01:26;;;;;;;3.05;0.77;;;;;;;-142.37;100.00;59669.53;4975244;28;20034;-67
2022/09/01 01:03:52;;;;;;;1.75;0.60;;;;;;;-142.37;100.00;59669.53;4975480;28;20092;-66
2022/09/01 01:06:22;;;;;;;2.60;0.50;;;;;;;-142.37;100.00;59669.53;4957835;28;20035;-68
2022/09/01 01:08:59;;;;;;;3.15;0.70;;;;;;;-142.37;100.00;59669.53;4974868;28;20027;-67
2022/09/01 01:11:27;;;;;;;1.55;0.70;;;;;;;-142.37;100.00;59669.53;4957764;28;20026;-67
2022/09/01 01:14:04;;;;;;;2.15;0.93;;;;;;;-142.37;100.00;59669.53;4974872;28;20392;-66
2022/09/01 01:16:30;;;;;;;3.20;0.68;;;;;;;-142.37;100.00;59669.53;4974831;28;20027;-68
2022/09/01 01:18:56;;;;;;;1.83;0.60;;;;;;;-142.37;100.00;59669.53;4974883;28;20035;-73
2022/09/01 01:24:33;;;;;;;1.55;0.60;;;;;;;-142.37;100.00;59669.53;4975073;28;20462;-67
2022/09/01 01:26:59;;;;;;;2.00;1.00;;;;;;;-142.37;100.00;59669.53;4957089;28;20542;-66
2022/09/01 01:29:30;;;;;;;3.08;0.93;;;;;;;-142.37;100.00;59669.53;4974836;28;20050;-68
2022/09/01 01:31:56;;;;;;;2.97;0.98;;;;;;;-142.37;100.00;59669.53;4974687;28;20031;-67
2022/09/01 01:34:22;;;;;;;1.92;0.60;;;;;;;-142.37;100.00;59669.53;4957053;28;20038;-67
2022/09/01 01:36:49;;;;;;;1.90;0.90;;;;;;;-142.37;100.00;59669.53;4974596;28;20085;-67
2022/09/01 01:39:18;;;;;;;1.17;0.70;;;;;;;-142.37;100.00;59669.53;4972917;28;20069;-68
2022/09/01 01:41:47;;;;;;;6.32;0.80;;;;;;;-142.37;100.00;59669.53;4974345;28;20447;-67
2022/09/01 01:44:21;;;;;;;1.35;0.77;;;;;;;-142.37;100.00;59669.53;4956642;28;20038;-67
2022/09/01 01:46:49;;;;;;;2.13;1.00;;;;;;;-142.37;100.00;59669.53;4956753;28;20043;-68
2022/09/01 01:49:19;;;;;;;2.55;0.98;;;;;;;-142.37;100.00;59669.53;4974240;28;20096;-67
2022/09/01 01:51:46;;;;;;;3.00;1.20;;;;;;;-142.37;100.00;59669.53;4974482;28;20042;-67
2022/09/01 01:54:14;;;;;;;1.38;0.88;;;;;;;-142.37;100.00;59669.53;4956769;28;20019;-67
2022/09/01 01:56:40;;;;;;;1.75;1.02;;;;;;;-142.37;100.00;59669.53;4973940;28;20038;-67
2022/09/01 01:59:10;;;;;;;2.13;0.80;;;;;;;-142.37;100.00;59669.53;4956778;28;20031;-67
2022/09/01 02:01:37;;;;;;;2.95;1.30;;;;;;;-142.37;100.00;59669.53;4974043;28;20117;-67
2022/09/01 02:04:04;;;;;;;1.70;0.60;;;;;;;-142.37;100.00;59669.53;4974036;28;20082;-67
2022/09/01 02:06:33;;;;;;;2.47;0.68;;;;;;;-142.37;100.00;59669.53;4973143;28;20030;-68
2022/09/01 02:09:02;;;;;;;4.00;1.00;;;;;;;-142.37;100.00;59669.53;4973859;28;20037;-68
2022/09/01 02:11:32;;;;;;;1.23;0.90;;;;;;;-142.37;100.00;59669.53;4956504;28;20069;-67
2022/09/01 02:13:59;;;;;;;3.65;1.08;;;;;;;-142.37;100.00;59669.53;4973778;28;20399;-68
2022/09/01 02:16:28;;;;;;;3.97;0.70;;;;;;;-142.37;100.00;59669.53;4974083;28;20392;-67
2022/09/01 02:18:54;;;;;;;1.30;0.52;;;;;;;-142.37;100.00;59669.53;4973975;28;20027;-67
2022/09/01 02:21:22;;;;;;;3.28;0.70;;;;;;;-142.37;100.00;59669.53;4955856;28;20384;-68
2022/09/01 02:23:59;;;;;;;1.60;0.90;;;;;;;-142.37;100.00;59669.53;4973533;28;20086;-66
2022/09/01 02:26:32;;;;;;;1.42;0.60;;;;;;;-142.37;100.00;59669.53;4956460;28;20054;-67
2022/09/01 02:29:03;;;;;;;2.33;0.85;;;;;;;-142.37;100.00;59669.53;4973353;28;20054;-68
2022/09/01 02:31:34;;;;;;;2.40;0.80;;;;;;;-142.37;100.00;59669.53;4956216;28;20468;-66
2022/09/01 02:34:00;;;;;;;2.50;0.60;;;;;;;-142.37;100.00;59669.53;4973585;28;20031;-68
2022/09/01 02:36:26;;;;;;;2.67;0.70;;;;;;;-142.37;100.00;59669.53;4973771;28;20033;-68
2022/09/01 02:38:53;;;;;;;1.80;0.52;;;;;;;-142.37;100.00;59669.53;4973635;28;20031;-67
2022/09/01 02:41:22;;;;;;;1.35;0.70;;;;;;;-142.37;100.00;59669.53;4973157;28;20038;-67
2022/09/01 02:43:49;;;;;;;1.20;0.55;;;;;;;-142.37;100.00;59669.53;4973380;28;20172;-68
2022/09/01 02:46:14;;;;;;;0.77;0.52;;;;;;;-142.37;100.00;59669.53;4973368;28;20031;-69
2022/09/01 02:48:44;;;;;;;0.93;0.50;;;;;;;-142.37;100.00;59669.53;4973604;28;20038;-67
2022/09/01 02:51:17;;;;;;;0.55;0.35;;;;;;;-142.37;100.00;59669.53;4973178;28;20026;-68
2022/09/01 02:53:51;;;;;;;1.55;0.60;;;;;;;-142.37;100.00;59669.53;4973329;28;20030;-68
2022/09/01 02:56:21;;;;;;;1.00;0.55;;;;;;;-142.37;100.00;59669.53;4973373;28;20046;-69
2022/09/01 02:58:48;;;;;;;2.95;0.63;;;;;;;-142.37;100.00;59669.53;4955884;28;20038;-67
2022/09/01 03:01:19;;;;;;;2.28;0.45;;;;;;;-142.37;100.00;59669.53;4972732;28;20045;-67
2022/09/01 03:03:45;;;;;;;1.13;0.40;;;;;;;-142.37;100.00;59669.53;4973402;28;20026;-68
2022/09/01 03:06:11;;;;;;;1.27;0.60;;;;;;;-142.37;100.00;59669.53;4973100;28;20410;-68
2022/09/01 03:08:38;;;;;;;1.42;0.40;;;;;;;-142.37;100.00;59669.53;4973345;28;20085;-67
2022/09/01 03:11:09;;;;;;;1.65;0.60;;;;;;;-142.37;100.00;59669.53;4955435;28;20042;-67
2022/09/01 03:13:38;;;;;;;2.03;0.55;;;;;;;-142.37;100.00;59669.53;4973045;28;20069;-68
2022/09/01 03:16:06;;;;;;;4.13;0.50;;;;;;;-142.37;100.00;59669.53;4973161;28;20051;-68
2022/09/01 03:18:32;;;;;;;0.98;0.60;;;;;;;-142.37;100.00;59669.53;4977189;28;20033;-67
2022/09/01 03:20:58;;;;;;;0.70;0.57;;;;;;;-142.37;100.00;59669.53;4976799;28;20046;-67
2022/09/01 03:23:24;;;;;;;2.30;0.50;;;;;;;-142.37;100.00;59669.53;4976823;28;20082;-68
2022/09/01 03:25:51;;;;;;;2.20;0.57;;;;;;;-142.37;100.00;59669.53;4977022;28;20034;-68
2022/09/01 03:28:16;;;;;;;1.58;0.40;;;;;;;-142.37;100.00;59669.53;4976578;28;20468;-68
2022/09/01 03:30:49;;;;;;;1.10;0.45;;;;;;;-142.37;100.00;59669.53;4959531;28;20185;-67
2022/09/01 03:33:17;;;;;;;0.73;0.60;;;;;;;-142.37;100.00;59669.53;4959198;28;20468;-68
2022/09/01 03:35:43;;;;;;;2.13;0.73;;;;;;;-142.37;100.00;59669.53;4959212;28;20396;-67
2022/09/01 03:38:11;;;;;;;1.27;0.43;;;;;;;-142.37;100.00;59669.53;4959046;28;20132;-67
2022/09/01 03:40:38;;;;;;;1.25;0.45;;;;;;;-142.37;100.00;59669.53;4976464;28;20479;-68
2022/09/01 03:43:12;;;;;;;2.45;0.50;;;;;;;-142.37;100.00;59669.53;4976421;28;20023;-67
2022/09/01 03:45:39;;;;;;;1.90;0.60;;;;;;;-142.37;100.00;59669.53;4959241;28;20031;-67
2022/09/01 03:48:07;;;;;;;3.75;0.65;;;;;;;-142.37;100.00;59669.53;4977068;28;20035;-67
2022/09/01 03:50:40;;;;;;;1.85;0.55;;;;;;;-142.37;100.00;59669.53;4976446;28;20031;-66
2022/09/01 03:53:07;;;;;;;5.50;0.50;;;;;;;-142.37;100.00;59669.53;4975800;28;20027;-68
2022/09/01 03:55:37;;;;;;;4.63;0.60;;;;;;;-142.37;100.00;59669.53;4975999;28;20039;-69
2022/09/01 03:58:08;;;;;;;0.77;0.45;;;;;;;-142.37;100.00;59669.53;4958803;28;20027;-68
2022/09/01 04:00:38;;;;;;;2.17;0.90;;;;;;;-142.37;100.00;59669.53;4958836;28;20046;-68
2022/09/01 04:03:07;;;;;;;6.18;0.60;;;;;;;-142.37;100.00;59669.53;4958561;28;20070;-68
2022/09/01 04:05:36;;;;;;;0.65;0.50;;;;;;;-142.37;100.00;59669.53;4975808;28;20037;-68
2022/09/01 04:08:04;;;;;;;1.98;0.80;;;;;;;-142.37;100.00;59669.53;4975855;28;20109;-68
2022/09/01 04:10:31;;;;;;;1.63;0.40;;;;;;;-142.37;100.00;59669.53;4976374;28;20121;-67
2022/09/01 04:12:58;;;;;;;0.82;0.40;;;;;;;-142.37;100.00;59669.53;4957969;28;20109;-70
2022/09/01 04:15:25;;;;;;;1.85;0.47;;;;;;;-142.37;100.00;59669.53;4958005;28;20110;-68
2022/09/01 04:18:11;;;;;;;1.80;0.65;;;;;;;-142.37;100.00;59669.53;4958107;28;20073;-67
2022/09/01 04:20:49;;;;;;;2.15;0.55;;;;;;;-142.37;100.00;59669.53;4975324;28;20038;-68
2022/09/01 04:23:28;;;;;;;0.80;0.35;;;;;;;-142.37;100.00;59669.53;4974980;28;20468;-69
2022/09/01 04:25:58;;;;;;;0.60;0.40;;;;;;;-142.37;100.00;59669.53;4975543;28;20113;-68
2022/09/01 04:28:32;;;;;;;2.85;0.52;;;;;;;-142.37;100.00;59669.53;4957425;28;20058;-68
2022/09/01 04:30:57;;;;;;;1.73;0.77;;;;;;;-142.37;100.00;59669.53;4973902;28;20043;-68
2022/09/01 04:33:26;;;;;;;2.38;0.75;;;;;;;-142.37;100.00;59669.53;4975553;28;20464;-67
2022/09/01 04:35:55;;;;;;;3.90;0.40;;;;;;;-142.37;100.00;59669.53;4975542;28;20114;-69
2022/09/01 04:38:23;;;;;;;3.97;0.50;;;;;;;-142.37;100.00;59669.53;4973958;28;20407;-69
2022/09/01 04:40:50;;;;;;;0.93;0.40;;;;;;;-142.37;100.00;59669.53;4975258;28;20043;-66
2022/09/01 04:43:16;;;;;;;1.35;0.40;;;;;;;-142.37;100.00;59669.53;4974685;28;20562;-69
2022/09/01 04:45:44;;;;;;;1.45;0.20;;;;;;;-142.37;100.00;59669.53;4975319;28;20027;-68
2022/09/01 04:48:10;;;;;;;2.08;0.63;;;;;;;-142.37;100.00;59669.53;4974954;28;20027;-69
2022/09/01 04:50:36;;;;;;;3.80;0.32;;;;;;;-142.37;100.00;59669.53;4975129;28;20122;-69
2022/09/01 04:53:04;;;;;;;0.88;0.40;;;;;;;-142.37;100.00;59669.53;4974697;28;20135;-68
2022/09/01 04:55:30;;;;;;;4.68;0.63;;;;;;;-142.37;100.00;59669.53;4974935;28;20027;-69
2022/09/01 04:57:59;;;;;;;1.63;0.43;;;;;;;-142.37;100.00;59669.53;4973381;28;20042;-68
2022/09/01 05:00:30;;;;;;;0.50;0.30;;;;;;;-142.37;100.00;59669.53;4974588;28;20027;-68
2022/09/01 05:03:03;;;;;;;1.50;0.60;;;;;;;-142.37;100.00;59669.53;4957284;28;20027;-68
2022/09/01 05:05:41;;;;;;;3.72;0.70;;;;;;;-142.37;100.00;59669.53;4974693;28;20502;-66
2022/09/01 05:08:14;;;;;;;6.05;0.80;;;;;;;-142.37;100.00;59669.53;4974043;28;20041;-69
2022/09/01 05:10:43;;;;;;;4.32;0.60;;;;;;;-142.37;100.00;59669.53;4957022;28;20502;-67
2022/09/01 05:13:11;;;;;;;2.30;0.70;;;;;;;-142.37;100.00;59669.53;4974399;28;20026;-68
2022/09/01 05:15:46;;;;;;;1.00;0.35;;;;;;;-142.37;100.00;59669.53;4956724;28;20436;-71
2022/09/01 05:18:22;;;;;;;5.18;0.70;;;;;;;-142.37;100.00;59669.53;4974266;28;20062;-68
2022/09/01 05:20:51;;;;;;;1.35;0.30;;;;;;;-142.37;100.00;59669.53;4956164;28;20484;-68
2022/09/01 05:23:18;;;;;;;4.30;1.08;;;;;;;-142.37;100.00;59669.53;4956238;28;20070;-69
2022/09/01 05:25:48;;;;;;;2.33;1.08;;;;;;;-142.37;100.00;59669.53;4973836;28;20479;-69
2022/09/01 05:28:18;;;;;;;1.60;0.63;;;;;;;-142.37;100.00;59669.53;4973502;28;20043;-68
2022/09/01 05:30:46;;;;;;;3.05;0.65;;;;;;;-142.37;100.00;59669.53;4973565;28;20117;-67
2022/09/01 05:33:15;;;;;;;2.08;0.68;;;;;;;-142.37;100.00;59669.53;4973198;28;20065;-70
2022/09/01 05:36:00;;;;;;;0.80;0.63;;;;;;;-142.37;100.00;59669.53;4956219;28;20058;-67
2022/09/01 05:38:25;;;;;;;1.48;0.80;;;;;;;-142.37;100.00;59669.53;4973869;28;20030;-69
2022/09/01 05:41:03;;;;;;;1.92;0.68;;;;;;;-142.37;100.00;59669.53;4954278;28;20118;-71
2022/09/01 05:43:30;;;;;;;4.22;0.90;;;;;;;-142.37;100.00;59669.53;4955843;28;20031;-70
2022/09/01 05:45:57;;;;;;;1.67;0.68;;;;;;;-142.37;100.00;59669.53;4955533;28;20039;-68
2022/09/01 05:48:24;;;;;;;1.08;0.57;;;;;;;-142.37;100.00;59669.53;4973305;28;20433;-70
2022/09/01 05:50:55;;;;;;;7.22;0.98;;;;;;;-142.37;100.00;59669.53;4973544;28;20042;-70
2022/09/01 05:53:24;;;;;;;3.33;1.17;;;;;;;-142.37;100.00;59669.53;4972323;28;20109;-68
2022/09/01 05:55:55;;;;;;;1.25;0.60;;;;;;;-142.37;100.00;59669.53;4972013;28;20401;-68
2022/09/01 05:58:24;;;;;;;1.13;0.70;;;;;;;-142.37;100.00;59669.53;4955196;28;20093;-67
2022/09/01 06:00:53;;;;;;;5.05;1.35;;;;;;;-142.37;100.00;59669.53;4972618;28;20388;-70
2022/09/01 06:03:21;;;;;;;1.63;0.70;;;;;;;-142.37;100.00;59669.53;4955138;28;20038;-70
2022/09/01 06:05:57;;;;;;;2.00;1.02;;;;;;;-142.37;100.00;59669.53;4954752;28;20031;-71
2022/09/01 06:08:27;;;;;;;1.80;0.63;;;;;;;-142.37;100.00;59669.53;4955491;28;20074;-70
2022/09/01 06:10:54;;;;;;;1.58;0.60;;;;;;;-142.37;100.00;59669.53;4955345;28;20034;-71
2022/09/01 06:13:20;;;;;;;2.55;0.43;;;;;;;-142.37;100.00;59669.53;4955093;28;20113;-71
2022/09/01 06:15:53;;;;;;;5.07;0.85;;;;;;;-142.37;100.00;59669.53;4954570;28;20479;-70
2022/09/01 06:18:20;;;;;;;1.40;0.65;;;;;;;-142.37;100.00;59669.53;4970907;28;20038;-71
2022/09/01 06:20:47;;;;;;;1.17;0.50;;;;;;;-142.37;100.00;59669.53;4954272;28;20033;-70
2022/09/01 06:23:16;;;;;;;2.63;0.80;;;;;;;-142.37;100.00;59669.53;4971939;28;20113;-71
2022/09/01 06:25:46;;;;;;;0.80;0.50;;;;;;;-142.37;100.00;59669.53;4972296;28;20085;-69
2022/09/01 06:28:13;;;;;;;0.60;0.43;;;;;;;-142.37;100.00;59669.53;4954652;28;20065;-70
2022/09/01 06:30:41;;;;;;;1.80;0.77;;;;;;;-142.37;100.00;59669.53;4971493;28;20476;-67
2022/09/01 06:33:08;;;;;;;0.57;0.40;;;;;;;-142.37;100.00;59669.53;4954227;28;20499;-70
2022/09/01 06:35:37;;;;;;;1.73;0.40;;;;;;;-142.37;100.00;59669.53;4971789;28;20053;-69
2022/09/01 06:38:05;;;;;;;1.42;0.57;;;;;;;-142.37;100.00;59669.53;4972054;28;20419;-71
2022/09/01 06:40:32;;;;;;;2.75;0.70;;;;;;;-142.37;100.00;59669.53;4954639;28;20037;-71
2022/09/01 06:42:59;;;;;;;2.13;0.55;;;;;;;-142.37;100.00;59669.53;4954662;28;20065;-71
2022/09/01 06:45:25;;;;;;;0.85;0.55;;;;;;;-142.37;100.00;59669.53;4971563;28;20038;-71
2022/09/01 06:47:51;;;;;;;2.88;0.80;;;;;;;-142.37;100.00;59669.53;4954803;28;20178;-70
2022/09/01 06:50:20;;;;;;;2.08;0.70;;;;;;;-142.37;100.00;59669.53;4972172;28;20049;-70
2022/09/01 06:53:00;;;;;;;1.85;0.47;;;;;;;-142.37;100.00;59669.53;4971726;28;20114;-71
2022/09/01 06:55:33;;;;;;;1.60;0.47;;;;;;;-142.37;100.00;59669.53;4971742;28;20030;-69
2022/09/01 06:57:59;;;;;;;1.38;0.57;;;;;;;-142.37;100.00;59669.53;4954916;28;20183;-70
2022/09/01 07:00:25;;;;;;;1.85;0.80;;;;;;;-142.37;100.00;59669.53;4954021;28;20220;-70
2022/09/01 07:02:55;;;;;;;12.43;1.00;;;;;;;-142.37;100.00;59669.53;4972309;28;20034;-68
2022/09/01 07:05:23;;;;;;;2.03;0.68;;;;;;;-142.37;100.00;59669.53;4954482;28;20460;-68
2022/09/01 07:07:53;;;;;;;1.02;0.85;;;;;;;-142.37;100.00;59669.53;4954609;28;20499;-70
2022/09/01 07:10:21;;;;;;;2.80;0.50;;;;;;;-142.37;100.00;59669.53;4972234;28;20038;-69
2022/09/01 07:12:52;;;;;;;3.60;0.70;;;;;;;-142.37;100.00;59669.53;4972664;28;20508;-69
2022/09/01 07:15:18;;;;;;;1.85;0.50;;;;;;;-142.37;100.00;59669.53;4972094;28;20034;-70
2022/09/01 07:17:51;;;;;;;1.40;0.50;;;;;;;-142.37;100.00;59669.53;4955460;28;20027;-69
2022/09/01 07:20:22;;;;;;;0.90;0.50;;;;;;;-142.37;100.00;59669.53;4955172;28;20030;-68
2022/09/01 07:22:49;;;;;;;1.15;0.20;;;;;;;-142.37;100.00;59669.53;4955043;28;20043;-70
2022/09/01 07:25:16;;;;;;;0.95;0.40;;;;;;;-142.37;100.00;59669.53;4972493;28;20031;-70
2022/09/01 07:27:49;;;;;;;0.70;0.50;;;;;;;-142.37;100.00;59669.53;4972336;28;20054;-70
2022/09/01 07:30:20;;;;;;;1.35;0.60;;;;;;;-142.37;100.00;59669.53;4972381;28;20138;-70
2022/09/01 07:32:47;;;;;;;1.85;0.50;;;;;;;-142.37;100.00;59669.53;4970577;28;20023;-69
2022/09/01 07:35:18;;;;;;;1.15;0.40;;;;;;;-142.37;100.00;59669.53;4971796;28;20069;-69
2022/09/01 07:37:47;;;;;;;0.95;0.68;;;;;;;-142.37;100.00;59669.53;4954837;28;20034;-69
2022/09/01 07:40:18;;;;;;;2.63;0.77;;;;;;;-142.37;100.00;59669.53;4972112;28;20398;-68
2022/09/01 07:42:46;;;;;;;0.95;0.40;;;;;;;-142.37;100.00;59669.53;4970984;28;20037;-68
2022/09/01 07:45:14;;;;;;;0.73;0.30;;;;;;;-142.37;100.00;59669.53;4970761;28;20062;-68
2022/09/01 07:47:40;;;;;;;2.88;0.50;;;;;;;-142.37;100.00;59669.53;4972396;28;20480;-69
2022/09/01 07:50:11;;;;;;;3.05;1.08;;;;;;;-142.37;100.00;59669.53;4972560;28;20459;-68
2022/09/01 07:52:42;;;;;;;1.15;0.43;;;;;;;-142.37;100.00;59669.53;4954704;28;20030;-68
2022/09/01 07:55:13;;;;;;;0.57;0.52;;;;;;;-142.37;100.00;59669.53;4971684;28;21120;-70
2022/09/01 07:57:41;;;;;;;2.83;0.20;;;;;;;-142.37;100.00;59669.53;4954732;28;20440;-69
2022/09/01 08:00:14;;;;;;;0.85;0.40;;;;;;;-142.37;100.00;59669.53;4971908;28;20219;-69
2022/09/01 08:02:43;;;;;;;0.82;0.30;;;;;;;-142.37;100.00;59669.53;4972303;28;20035;-69
2022/09/01 08:05:12;;;;;;;0.50;0.32;;;;;;;-142.37;100.00;59669.53;4975312;28;20049;-69
2022/09/01 08:07:38;;;;;;;1.80;0.50;;;;;;;-142.37;100.00;59669.53;4975368;28;20043;-69
2022/09/01 08:10:06;;;;;;;6.07;0.70;;;;;;;-142.37;100.00;59669.53;4975621;28;20058;-67
2022/09/01 08:12:32;;;;;;;1.05;0.50;;;;;;;-142.37;100.00;59669.53;4975761;28;20042;-67
2022/09/01 08:14:58;;;;;;;2.78;0.63;;;;;;;-142.37;100.00;59669.53;4974749;28;20065;-69
2022/09/01 08:17:23;;;;;;;1.67;0.50;;;;;;;-142.37;100.00;59669.53;4975056;28;20027;-67
2022/09/01 08:19:49;;;;;;;1.52;0.30;;;;;;;-142.37;100.00;59669.53;4975219;28;20105;-67
2022/09/01 08:22:15;;;;;;;4.47;0.70;;;;;;;-142.37;100.00;59669.53;4958011;28;20035;-67
2022/09/01 08:24:41;;;;;;;2.28;0.73;;;;;;;-142.37;100.00;59669.53;4975565;28;20089;-69
2022/09/01 08:27:07;;;;;;;3.22;0.50;;;;;;;-142.37;100.00;59669.53;4974842;28;20031;-68
2022/09/01 08:29:33;;;;;;;1.63;0.40;;;;;;;-142.37;100.00;59669.53;4957384;28;20463;-67
2022/09/01 08:31:59;;;;;;;2.72;0.60;;;;;;;-142.37;100.00;59669.53;4957547;28;20038;-64
2022/09/01 08:34:25;;;;;;;1.10;0.10;;;;;;;-142.37;100.00;59669.53;4957469;28;20106;-66
2022/09/01 08:36:51;;;;;;;1.42;0.40;;;;;;;-142.37;100.00;59669.53;4973522;28;20396;-66
2022/09/01 08:39:17;;;;;;;0.88;0.30;;;;;;;-142.37;100.00;59669.53;4974605;28;20065;-65
2022/09/01 08:41:46;;;;;;;2.22;0.38;;;;;;;-142.37;100.00;59669.53;4974870;28;20035;-64
2022/09/01 08:44:44;;;;;;;0.50;0.20;;;;;;;-142.37;100.00;59669.53;4957346;28;20034;-65
2022/09/01 08:47:15;;;;;;;4.13;2.40;;;;;;;-142.37;100.00;59669.53;4974541;28;20065;-65
2022/09/01 08:49:45;;;;;;;2.97;0.80;;;;;;;-142.37;100.00;59669.53;4957490;28;20113;-64
2022/09/01 08:52:26;;;;;;;3.38;1.20;;;;;;;-142.37;100.00;59669.53;4957188;28;20034;-64
2022/09/01 08:55:01;;;;;;;2.60;1.13;;;;;;;-142.37;100.00;59669.53;4974857;28;20115;-65
2022/09/01 08:57:40;;;;;;;3.78;1.50;;;;;;;-142.37;100.00;59669.53;4974420;28;20078;-66
2022/09/01 09:00:10;;;;;;;2.58;0.98;;;;;;;-142.37;100.00;59669.53;4974604;28;20086;-65
2022/09/01 09:03:05;;;;;;;4.20;1.85;;;;;;;-142.37;100.00;59669.53;4956879;28;20037;-66
2022/09/01 09:06:07;;;;;;;3.53;0.88;;;;;;;-142.37;100.00;59669.53;4973851;28;20030;-68
2022/09/01 09:08:47;;;;;;;0.98;0.35;;;;;;;-142.37;100.00;59669.53;4973959;28;20404;-65
2022/09/01 09:11:50;;;;;;;1.65;1.00;;;;;;;-142.37;100.00;59669.53;4974451;28;20144;-65
2022/09/01 09:14:32;;;;;;;4.63;1.27;;;;;;;-142.37;100.00;59669.53;4972642;28;20041;-66
2022/09/01 09:16:59;;;;;;;6.18;2.03;;;;;;;-142.37;100.00;59669.53;4955804;28;20180;-68
2022/09/01 09:19:32;;;;;;;2.15;0.70;;;;;;;-142.37;100.00;59669.53;4973771;28;20062;-67
2022/09/01 09:22:01;;;;;;;5.63;1.00;;;;;;;-142.37;100.00;59669.53;4956644;28;20034;-65
2022/09/01 09:24:48;;;;;;;1.70;0.70;;;;;;;-142.37;100.00;59669.53;4956477;28;20443;-65
2022/09/01 09:27:29;;;;;;;4.05;0.88;;;;;;;-142.37;100.00;59669.53;4972569;28;20043;-66
2022/09/01 09:29:58;;;;;;;1.67;0.80;;;;;;;-142.37;100.00;59669.53;4955988;28;20121;-66
2022/09/01 09:32:49;;;;;;;2.42;0.70;;;;;;;-142.37;100.00;59669.53;4973336;28;20499;-65
2022/09/01 09:35:30;;;;;;;2.42;1.13;;;;;;;-142.37;100.00;59669.53;4955181;28;20031;-65
2022/09/01 09:38:19;;;;;;;2.15;0.85;;;;;;;-142.37;100.00;59669.53;4972668;28;20026;-64
2022/09/01 09:41:05;;;;;;;1.20;0.73;;;;;;;-142.37;100.00;59669.53;4972910;28;20034;-64
2022/09/01 09:43:37;;;;;;;2.28;1.13;;;;;;;-142.37;100.00;59669.53;4972864;28;20058;-65
2022/09/01 09:46:23;;;;;;;4.60;1.23;;;;;;;-142.37;100.00;59669.53;4955769;28;20034;-65
2022/09/01 09:49:24;;;;;;;0.93;0.75;;;;;;;-142.37;100.00;59669.53;4973221;28;20147;-66
2022/09/01 09:52:01;;;;;;;3.75;2.20;;;;;;;-142.37;100.00;59669.53;4972323;28;20532;-66
2022/09/01 09:54:33;;;;;;;3.75;1.48;;;;;;;-142.37;100.00;59669.53;4972920;28;20384;-64
2022/09/01 09:57:07;;;;;;;1.58;0.60;;;;;;;-142.37;100.00;59669.53;4971148;28;20126;-66
2022/09/01 09:59:37;;;;;;;;;;;;;;;-142.37;100.00;59669.53;4971525;28;20038;-64
2022/09/01 10:02:35;;;;;;;3.83;0.38;;;;;;;-142.37;100.00;59669.53;4954701;28;20378;-64
2022/09/01 10:05:23;;;;;;;0.70;0.70;;;;;;;-142.37;100.00;59669.53;4971904;28;20086;-63
2022/09/01 10:07:49;;;;;;;2.30;0.85;;;;;;;-142.37;100.00;59669.53;4971721;28;20491;-66
2022/09/01 10:10:37;;;;;;;2.00;0.50;;;;;;;-142.37;100.00;59669.53;4972340;28;20027;-65
2022/09/01 10:13:03;;;;;;;0.68;0.68;;;;;;;-142.37;100.00;59669.53;4954420;28;20403;-64
2022/09/01 10:15:32;;;;;;;1.52;0.95;;;;;;;-142.37;100.00;59669.53;4955127;28;20038;-64
2022/09/01 10:18:07;;;;;;;1.65;0.75;;;;;;;-142.37;100.00;59669.53;4972143;28;20164;-64
2022/09/01 10:20:36;;;;;;;1.15;0.70;;;;;;;-142.37;100.00;59669.53;4972526;28;20031;-65
2022/09/01 10:23:02;;;;;;;3.78;0.82;;;;;;;-142.37;100.00;59669.53;4970985;28;20118;-67
2022/09/01 10:25:32;;;;;;;0.98;0.50;;;;;;;-142.37;100.00;59669.53;4955509;28;20178;-66
2022/09/01 10:28:11;;;;;;;3.03;0.77;;;;;;;-142.37;100.00;59669.53;4972373;28;20050;-65
2022/09/01 10:30:42;;;;;;;1.55;0.60;;;;;;;-142.37;100.00;59669.53;4973057;28;20403;-65
2022/09/01 10:33:09;;;;;;;1.55;0.75;;;;;;;-142.37;100.00;59669.53;4971420;28;20097;-66
2022/09/01 10:35:40;;;;;;;1.17;0.63;;;;;;;-142.37;100.00;59669.53;4972826;28;20027;-66
2022/09/01 10:38:09;;;;;;;2.20;0.73;;;;;;;-142.37;100.00;59669.53;4954967;28;20125;-65
2022/09/01 10:40:44;;;;;;;3.17;1.30;;;;;;;-142.37;100.00;59669.53;4972516;28;20085;-65
2022/09/01 10:43:24;;;;;;;2.67;1.27;;;;;;;-142.37;100.00;59669.53;4954788;28;20050;-67
2022/09/01 10:45:50;;;;;;;1.00;0.70;;;;;;;-142.37;100.00;59669.53;4970530;28;20034;-65
2022/09/01 10:48:34;;;;;;;3.58;0.88;;;;;;;-142.37;100.00;59669.53;4972369;28;20113;-65
2022/09/01 10:51:12;;;;;;;1.73;0.70;;;;;;;-142.37;100.00;59669.53;4972223;28;20031;-65
2022/09/01 10:53:43;;;;;;;0.77;0.57;;;;;;;-142.37;100.00;59669.53;4972192;28;20635;-66
2022/09/01 10:56:16;;;;;;;1.20;0.50;;;;;;;-142.37;100.00;59669.53;4972170;28;20061;-64
2022/09/01 10:59:06;;;;;;;2.35;0.88;;;;;;;-142.37;100.00;59669.53;4954621;28;20488;-66
2022/09/01 11:01:44;;;;;;;2.38;0.52;;;;;;;-142.37;100.00;59669.53;4970848;28;20031;-65
2022/09/01 11:04:10;;;;;;;0.95;0.50;;;;;;;-142.37;100.00;59669.53;4970477;28;20125;-66
2022/09/01 11:07:00;;;;;;;1.88;0.88;;;;;;;-142.37;100.00;59669.53;4972194;28;20470;-65
2022/09/01 11:09:43;;;;;;;1.60;0.63;;;;;;;-142.37;100.00;59669.53;4972345;28;20035;-65
2022/09/01 11:12:24;;;;;;;0.82;0.43;;;;;;;-142.37;100.00;59669.53;4972249;28;20399;-66
2022/09/01 11:15:24;;;;;;;0.95;0.47;;;;;;;-142.37;100.00;59669.53;4954890;28;20502;-65
2022/09/01 11:17:49;;;;;;;1.25;0.40;;;;;;;-142.37;100.00;59669.53;4971821;28;20042;-65
2022/09/01 11:20:25;;;;;;;1.58;0.63;;;;;;;-142.37;100.00;59669.53;4970773;28;20038;-67
2022/09/01 11:23:23;;;;;;;1.23;0.25;;;;;;;-142.37;100.00;59669.53;4954868;28;20575;-65
2022/09/01 11:25:51;;;;;;;2.25;0.40;;;;;;;-142.37;100.00;59669.53;4972137;28;20089;-66
2022/09/01 11:28:23;;;;;;;0.50;0.30;;;;;;;-142.37;100.00;59669.53;4972313;28;20043;-65
2022/09/01 11:30:55;;;;;;;1.67;0.40;;;;;;;-142.37;100.00;59669.53;4970706;28;20101;-65